Time;durP1;ratioP1;P1;durP2;ratioP2;P2;SDS_P1;SDS_P2;PMS_P1;PMS_P2;Temp;Humidity;BMP_temperature;BMP_pressure;BME280_temperature;BME280_humidity;BME280_pressure;Samples;Min_cycle;Max_cycle;Signal;HPM_P1;HPM_P2
2022/09/24 00:01:17;;;;;;;23.13;18.17;;;13.90;90.80;;;;;;4916433;29;20044;-90
2022/09/24 00:03:59;;;;;;;23.45;19.20;;;13.90;90.80;;;;;;4916148;29;20043;-91
2022/09/24 00:06:28;;;;;;;20.98;17.55;;;14.00;90.80;;;;;;4911872;29;20530;-92
2022/09/24 00:09:01;;;;;;;22.65;17.85;;;14.00;90.80;;;;;;4921333;29;20051;-91
2022/09/24 00:11:31;;;;;;;21.63;17.67;;;13.90;90.80;;;;;;4915197;29;20082;-91
2022/09/24 00:13:57;;;;;;;22.35;17.95;;;13.90;90.80;;;;;;4914896;29;20087;-91
2022/09/24 00:16:26;;;;;;;21.38;17.83;;;14.00;90.80;;;;;;4910446;29;20119;-91
2022/09/24 00:18:52;;;;;;;20.88;16.98;;;13.90;90.70;;;;;;4917347;29;20539;-91
2022/09/24 00:21:27;;;;;;;21.95;17.20;;;13.90;90.70;;;;;;4914914;29;20809;-90
2022/09/24 00:23:55;;;;;;;;;;;13.90;90.80;;;;;;4910074;29;20044;-91
2022/09/24 00:29:14;;;;;;;22.08;16.48;;;13.90;90.50;;;;;;4917143;29;20051;-91
2022/09/24 00:31:41;;;;;;;22.35;16.30;;;13.90;90.60;;;;;;4913631;29;20048;-90
2022/09/24 00:34:09;;;;;;;20.73;15.77;;;13.80;90.80;;;;;;4899656;29;20048;-91
2022/09/24 00:36:38;;;;;;;21.23;16.50;;;13.80;90.70;;;;;;4914250;29;20046;-91
2022/09/24 00:39:05;;;;;;;19.80;15.63;;;13.80;90.80;;;;;;4918314;29;20031;-91
2022/09/24 00:41:37;;;;;;;21.58;16.67;;;13.70;91.00;;;;;;4904332;29;20043;-91
2022/09/24 00:44:44;;;;;;;21.17;16.85;;;13.70;91.20;;;;;;4899677;29;20032;-92
2022/09/24 00:47:50;;;;;;;22.17;17.52;;;13.70;91.20;;;;;;4902033;29;20078;-90
2022/09/24 00:50:24;;;;;;;24.25;16.23;;;13.60;91.40;;;;;;4919064;29;20538;-91
2022/09/24 00:53:02;;;;;;;20.20;16.20;;;13.70;91.50;;;;;;4927853;29;20063;-91
2022/09/24 00:55:28;;;;;;;22.42;18.10;;;13.70;91.60;;;;;;4910538;29;20111;-91
2022/09/24 00:58:00;;;;;;;21.33;17.30;;;13.60;91.80;;;;;;4911255;29;20032;-91
2022/09/24 01:00:55;;;;;;;23.60;18.63;;;13.60;91.90;;;;;;4905328;29;20036;-92
2022/09/24 01:03:50;;;;;;;21.50;17.30;;;13.60;92.00;;;;;;4909947;29;20122;-91
2022/09/24 01:06:15;;;;;;;25.67;17.47;;;13.60;92.10;;;;;;4911602;29;20120;-92
2022/09/24 01:08:59;;;;;;;22.23;17.48;;;13.60;92.00;;;;;;4921475;29;20573;-91
2022/09/24 01:11:34;;;;;;;18.52;15.60;;;13.60;92.20;;;;;;4917621;29;20093;-91
2022/09/24 01:14:11;;;;;;;21.08;16.98;;;13.60;92.10;;;;;;4892200;29;20060;-92
2022/09/24 01:17:11;;;;;;;21.30;17.27;;;13.60;92.20;;;;;;4923193;29;20066;-90
2022/09/24 01:20:15;;;;;;;20.55;16.00;;;13.60;92.20;;;;;;4899817;29;20035;-89
2022/09/24 01:23:21;;;;;;;20.52;16.25;;;13.60;92.20;;;;;;4942435;29;20043;-90
2022/09/24 01:26:08;;;;;;;24.70;17.90;;;13.60;92.20;;;;;;4930365;29;20044;-91
2022/09/24 01:29:04;;;;;;;20.00;15.27;;;13.60;92.20;;;;;;4933798;29;20039;-92
2022/09/24 01:31:43;;;;;;;20.08;15.68;;;13.60;92.30;;;;;;4929987;29;20043;-91
2022/09/24 01:34:13;;;;;;;21.77;15.60;;;13.60;92.30;;;;;;4919494;29;20058;-92
2022/09/24 01:36:44;;;;;;;23.42;16.52;;;13.60;92.20;;;;;;4932413;29;20050;-91
2022/09/24 01:39:17;;;;;;;20.02;16.17;;;13.60;92.20;;;;;;4917693;29;20091;-92
2022/09/24 01:41:43;;;;;;;21.48;15.93;;;13.60;92.30;;;;;;4916752;29;20102;-91
2022/09/24 01:44:11;;;;;;;20.63;15.98;;;13.60;92.20;;;;;;4912851;29;20027;-91
2022/09/24 01:46:40;;;;;;;20.58;16.05;;;13.60;92.20;;;;;;4913088;29;20354;-92
2022/09/24 01:49:07;;;;;;;18.73;15.15;;;13.60;92.20;;;;;;4918983;29;20040;-91
2022/09/24 01:51:42;;;;;;;19.17;15.65;;;13.60;92.20;;;;;;4927760;29;20036;-91
2022/09/24 01:57:31;;;;;;;21.13;14.93;;;13.60;92.20;;;;;;4914723;29;20119;-89
2022/09/24 02:00:08;;;;;;;19.38;15.20;;;13.60;92.30;;;;;;4916405;29;20073;-91
2022/09/24 02:02:41;;;;;;;18.08;14.93;;;13.60;92.20;;;;;;4925760;29;20043;-91
2022/09/24 02:05:36;;;;;;;19.10;15.35;;;13.70;92.30;;;;;;4894269;29;20034;-91
2022/09/24 02:08:19;;;;;;;20.23;14.50;;;13.60;92.30;;;;;;4912847;29;20071;-90
2022/09/24 02:10:59;;;;;;;19.98;14.93;;;13.70;92.30;;;;;;4901595;29;20083;-90
2022/09/24 02:13:28;;;;;;;20.52;14.80;;;13.70;92.30;;;;;;4912865;29;20051;-90
2022/09/24 02:16:04;;;;;;;20.33;15.27;;;13.60;92.30;;;;;;4902286;29;20060;-90
2022/09/24 02:18:43;;;;;;;21.40;15.27;;;13.60;92.40;;;;;;4926584;29;20047;-91
2022/09/24 02:21:13;;;;;;;18.95;14.35;;;13.60;92.50;;;;;;4882568;29;20044;-90
2022/09/24 02:23:49;;;;;;;19.92;14.70;;;13.60;92.40;;;;;;4917354;29;20034;-91
2022/09/24 02:26:15;;;;;;;19.23;14.23;;;13.60;92.40;;;;;;4899533;29;20091;-91
2022/09/24 02:28:45;;;;;;;18.52;14.05;;;13.60;92.40;;;;;;4900654;29;20049;-91
2022/09/24 02:31:36;;;;;;;19.75;13.85;;;13.60;92.40;;;;;;4895009;29;20059;-91
2022/09/24 02:34:24;;;;;;;20.25;14.13;;;13.60;92.30;;;;;;4878808;29;20048;-91
2022/09/24 02:37:07;;;;;;;18.90;13.90;;;13.60;92.20;;;;;;4903111;29;20043;-91
2022/09/24 02:40:04;;;;;;;20.85;14.05;;;13.60;92.20;;;;;;4892514;29;20088;-91
2022/09/24 02:42:33;;;;;;;18.70;14.77;;;13.60;92.20;;;;;;4896420;29;20044;-90
2022/09/24 02:45:13;;;;;;;20.90;14.23;;;13.60;92.10;;;;;;4886820;29;20509;-91
2022/09/24 02:47:58;;;;;;;17.00;13.65;;;13.60;92.10;;;;;;4917954;29;20054;-90
2022/09/24 02:50:24;;;;;;;17.83;13.43;;;13.60;92.10;;;;;;4917303;28;20036;-90
2022/09/24 02:53:07;;;;;;;;;;;;;;;;;;;;;
2022/09/24 02:55:59;;;;;;;18.38;14.55;;;13.60;92.10;;;;;;4931571;28;20121;-91
2022/09/24 02:58:50;;;;;;;19.02;13.95;;;13.60;92.20;;;;;;4888835;29;20124;-91
2022/09/24 03:01:21;;;;;;;19.75;14.27;;;13.60;92.10;;;;;;4933775;29;20151;-91
2022/09/24 03:03:59;;;;;;;21.05;14.93;;;13.60;92.10;;;;;;4918725;29;20111;-90
2022/09/24 03:06:45;;;;;;;20.35;15.77;;;13.50;92.00;;;;;;4881098;29;20035;-90
2022/09/24 03:09:13;;;;;;;21.15;15.52;;;13.50;92.10;;;;;;4902726;29;20175;-90
2022/09/24 03:15:26;;;;;;;18.75;14.55;;;13.50;92.10;;;;;;4908882;29;20054;-89
2022/09/24 03:17:57;;;;;;;22.38;15.55;;;13.50;92.30;;;;;;4917361;29;20059;-90
2022/09/24 03:20:31;;;;;;;19.77;14.52;;;13.50;92.20;;;;;;4859864;29;20036;-91
2022/09/24 03:23:08;;;;;;;19.38;15.52;;;13.50;92.30;;;;;;4909124;29;20082;-90
2022/09/24 03:25:44;;;;;;;;;;;;;;;;;;;;;
2022/09/24 03:28:42;;;;;;;20.23;15.30;;;13.50;92.20;;;;;;4904469;29;20091;-91
2022/09/24 03:31:55;;;;;;;21.55;15.75;;;13.50;92.20;;;;;;4875813;29;20044;-92
2022/09/24 03:34:45;;;;;;;23.50;16.45;;;13.50;92.40;;;;;;4905825;29;20052;-89
2022/09/24 03:37:18;;;;;;;21.85;16.55;;;13.50;92.50;;;;;;4897018;29;20036;-90
2022/09/24 03:39:47;;;;;;;22.10;16.13;;;13.50;92.50;;;;;;4895452;29;20032;-90
2022/09/24 03:42:12;;;;;;;21.55;15.77;;;13.50;92.50;;;;;;4884788;29;20047;-91
2022/09/24 03:45:03;;;;;;;21.85;15.43;;;13.50;92.50;;;;;;4908260;29;20047;-91
2022/09/24 03:47:34;;;;;;;24.15;15.27;;;13.50;92.50;;;;;;4899898;29;20040;-90
2022/09/24 03:50:02;;;;;;;20.98;15.25;;;13.50;92.60;;;;;;4888372;29;20036;-90
2022/09/24 03:52:31;;;;;;;19.38;14.93;;;13.50;92.60;;;;;;4928402;29;20052;-91
2022/09/24 03:54:57;;;;;;;19.83;14.25;;;13.50;92.70;;;;;;4915582;29;20035;-90
2022/09/24 03:57:38;;;;;;;18.10;14.27;;;13.50;92.70;;;;;;4892439;29;22469;-90
2022/09/24 04:00:07;;;;;;;16.15;12.35;;;13.50;92.50;;;;;;4884500;29;20039;-89
2022/09/24 04:02:33;;;;;;;18.00;12.68;;;13.50;92.40;;;;;;4902865;29;20047;-89
2022/09/24 04:04:59;;;;;;;17.77;13.10;;;13.40;92.40;;;;;;4901971;29;20037;-90
2022/09/24 04:07:25;;;;;;;17.92;13.55;;;13.40;92.50;;;;;;4894643;29;20457;-91
2022/09/24 04:09:55;;;;;;;19.63;14.13;;;13.40;92.50;;;;;;4919779;29;20328;-89
2022/09/24 04:12:32;;;;;;;18.50;14.32;;;13.40;92.50;;;;;;4912195;29;20048;-90
2022/09/24 04:15:10;;;;;;;15.60;12.73;;;13.30;92.50;;;;;;4930538;29;20044;-89
2022/09/24 04:17:36;;;;;;;17.45;13.15;;;13.40;92.60;;;;;;4925556;29;20040;-89
2022/09/24 04:20:07;;;;;;;16.60;12.40;;;13.40;92.60;;;;;;4922464;29;20067;-90
2022/09/24 04:22:33;;;;;;;17.33;13.93;;;13.30;92.60;;;;;;4909880;29;20047;-90
2022/09/24 04:25:02;;;;;;;16.77;13.27;;;13.30;92.50;;;;;;4924710;29;20047;-89
2022/09/24 04:27:30;;;;;;;19.83;14.00;;;13.40;92.60;;;;;;4921567;29;20475;-91
2022/09/24 04:30:01;;;;;;;18.40;12.38;;;13.40;92.60;;;;;;4913474;29;20095;-91
2022/09/24 04:32:32;;;;;;;18.17;13.10;;;13.40;92.50;;;;;;4912790;29;20048;-90
2022/09/24 04:35:10;;;;;;;15.48;12.70;;;13.30;92.40;;;;;;4919708;28;20039;-90
2022/09/24 04:37:38;;;;;;;16.65;12.30;;;13.40;92.40;;;;;;4917627;29;20040;-90
2022/09/24 04:40:08;;;;;;;17.55;12.80;;;13.30;92.50;;;;;;4879280;28;20468;-90
2022/09/24 04:42:38;;;;;;;15.80;12.45;;;13.30;92.40;;;;;;4928726;29;20062;-89
2022/09/24 04:45:05;;;;;;;18.25;12.65;;;13.30;92.40;;;;;;4913965;29;20036;-89
2022/09/24 04:47:31;;;;;;;16.58;12.68;;;13.30;92.40;;;;;;4917017;29;20446;-89
2022/09/24 04:50:00;;;;;;;16.13;11.77;;;13.30;92.30;;;;;;4916308;29;20063;-90
2022/09/24 04:52:28;;;;;;;15.30;11.80;;;13.30;92.40;;;;;;4915430;29;20103;-89
2022/09/24 04:54:56;;;;;;;15.15;10.98;;;13.30;92.50;;;;;;4916405;29;20476;-89
2022/09/24 04:57:26;;;;;;;13.40;10.70;;;13.30;92.30;;;;;;4930346;29;20043;-89
2022/09/24 04:59:52;;;;;;;14.30;10.18;;;13.30;92.40;;;;;;4924927;29;20031;-89
2022/09/24 05:02:18;;;;;;;13.60;10.15;;;13.30;92.40;;;;;;4937338;29;20047;-91
2022/09/24 05:04:49;;;;;;;13.18;9.50;;;13.40;92.40;;;;;;4909919;29;20047;-89
2022/09/24 05:07:15;;;;;;;12.30;9.73;;;13.30;92.20;;;;;;4918159;29;20044;-89
2022/09/24 05:09:40;;;;;;;14.48;10.68;;;13.40;92.20;;;;;;4925182;29;20047;-90
2022/09/24 05:12:07;;;;;;;13.23;8.68;;;13.30;92.20;;;;;;4918912;29;20044;-88
2022/09/24 05:14:33;;;;;;;12.93;9.43;;;13.30;91.90;;;;;;4912697;29;20053;-91
2022/09/24 05:16:58;;;;;;;13.48;9.75;;;13.40;91.90;;;;;;4911916;29;20128;-89
2022/09/24 05:19:24;;;;;;;13.05;10.80;;;13.40;91.90;;;;;;4906609;29;20040;-90
2022/09/24 05:22:11;;;;;;;14.50;11.00;;;13.40;91.90;;;;;;4912623;29;20039;-89
2022/09/24 05:24:48;;;;;;;13.23;11.07;;;13.40;91.80;;;;;;4875752;29;20084;-90
2022/09/24 05:27:24;;;;;;;16.85;12.15;;;13.40;91.90;;;;;;4934550;29;20362;-90
2022/09/24 05:29:49;;;;;;;14.57;11.50;;;13.40;92.00;;;;;;4914859;29;20078;-90
2022/09/24 05:32:18;;;;;;;17.70;12.68;;;13.40;92.00;;;;;;4933484;29;20065;-90
2022/09/24 05:34:44;;;;;;;15.68;11.50;;;13.40;92.10;;;;;;4918531;29;20230;-90
2022/09/24 05:37:11;;;;;;;16.65;11.98;;;13.40;92.10;;;;;;4906577;29;20069;-90
2022/09/24 05:39:39;;;;;;;16.40;12.98;;;13.40;92.10;;;;;;4910671;29;20107;-90
2022/09/24 05:42:08;;;;;;;14.70;12.20;;;13.40;92.10;;;;;;4905569;29;20036;-90
2022/09/24 05:44:47;;;;;;;15.35;12.00;;;13.40;92.10;;;;;;4904954;29;20052;-90
2022/09/24 05:47:13;;;;;;;16.42;12.45;;;13.40;92.20;;;;;;4923506;29;20040;-90
2022/09/24 05:49:42;;;;;;;18.35;14.02;;;13.50;92.30;;;;;;4907037;29;20044;-91
2022/09/24 05:52:08;;;;;;;16.88;13.73;;;13.50;92.30;;;;;;4930918;29;20054;-90
2022/09/24 05:54:34;;;;;;;16.48;13.20;;;13.50;92.20;;;;;;4903306;29;20040;-90
2022/09/24 05:57:05;;;;;;;18.15;13.93;;;13.50;92.30;;;;;;4912841;29;20040;-90
2022/09/24 05:59:31;;;;;;;17.67;14.57;;;13.50;92.30;;;;;;4901112;28;20128;-90
2022/09/24 06:01:57;;;;;;;17.52;14.02;;;13.50;92.30;;;;;;4905114;29;20036;-90
2022/09/24 06:04:26;;;;;;;17.70;14.85;;;13.60;92.40;;;;;;4878653;29;20045;-90
2022/09/24 06:06:55;;;;;;;17.50;14.75;;;13.60;92.30;;;;;;4897081;29;20116;-89
2022/09/24 06:09:20;;;;;;;20.95;15.27;;;13.50;92.40;;;;;;4903127;29;20047;-89
2022/09/24 06:11:49;;;;;;;20.98;15.38;;;13.50;92.40;;;;;;4916355;29;20505;-89
2022/09/24 06:14:14;;;;;;;18.27;14.93;;;13.60;92.60;;;;;;4920488;29;20097;-89
2022/09/24 06:16:40;;;;;;;19.42;15.80;;;13.60;92.60;;;;;;4917289;29;20072;-89
2022/09/24 06:19:06;;;;;;;22.17;16.65;;;13.60;92.50;;;;;;4923614;29;20055;-89
2022/09/24 06:21:31;;;;;;;18.42;15.10;;;13.60;92.60;;;;;;4907086;29;20123;-90
2022/09/24 06:23:57;;;;;;;19.13;15.63;;;13.60;92.70;;;;;;4927097;29;20063;-89
2022/09/24 06:26:25;;;;;;;20.85;16.42;;;13.60;92.70;;;;;;4912887;29;20036;-90
2022/09/24 06:28:50;;;;;;;21.85;17.23;;;13.60;92.70;;;;;;4925777;29;20043;-89
2022/09/24 06:31:16;;;;;;;20.38;16.23;;;13.70;92.60;;;;;;4906018;29;20067;-90
2022/09/24 06:33:42;;;;;;;20.58;16.23;;;13.80;92.60;;;;;;4903493;29;20128;-89
2022/09/24 06:36:08;;;;;;;19.17;16.33;;;13.80;92.60;;;;;;4905686;29;20032;-90
2022/09/24 06:38:34;;;;;;;22.42;18.08;;;13.90;92.50;;;;;;4905033;29;20036;-89
2022/09/24 06:41:02;;;;;;;21.88;17.38;;;13.90;92.40;;;;;;4915469;29;20047;-89
2022/09/24 06:43:32;;;;;;;21.92;17.92;;;13.90;92.50;;;;;;4893133;29;20092;-88
2022/09/24 06:45:58;;;;;;;21.17;18.00;;;13.90;92.40;;;;;;4920872;29;20526;-89
2022/09/24 06:48:25;;;;;;;21.58;17.60;;;13.90;92.40;;;;;;4899792;29;20044;-89
2022/09/24 06:50:51;;;;;;;22.05;19.23;;;14.00;92.30;;;;;;4913392;29;20028;-89
2022/09/24 06:53:17;;;;;;;21.55;17.10;;;14.00;92.30;;;;;;4907257;29;20079;-89
2022/09/24 06:55:43;;;;;;;22.15;18.83;;;13.90;92.40;;;;;;4903651;29;20505;-89
2022/09/24 06:58:14;;;;;;;20.20;17.90;;;13.90;92.30;;;;;;4907294;29;20036;-90
2022/09/24 07:00:41;;;;;;;22.10;18.10;;;13.90;92.30;;;;;;4916272;29;20040;-89
2022/09/24 07:03:14;;;;;;;23.67;19.30;;;14.00;92.40;;;;;;4917182;29;20156;-87
2022/09/24 07:05:40;;;;;;;21.13;18.85;;;14.00;92.40;;;;;;4922566;29;20040;-88
2022/09/24 07:08:05;;;;;;;22.13;18.58;;;14.00;92.50;;;;;;4911604;29;20342;-87
2022/09/24 07:10:31;;;;;;;24.05;19.02;;;14.10;92.40;;;;;;4907267;29;20052;-88
2022/09/24 07:12:57;;;;;;;22.00;19.15;;;14.20;92.40;;;;;;4907542;29;20041;-89
2022/09/24 07:15:23;;;;;;;25.25;20.52;;;14.30;92.20;;;;;;4907198;29;20342;-88
2022/09/24 07:17:53;;;;;;;24.45;20.30;;;14.30;92.10;;;;;;4905311;29;20285;-88
2022/09/24 07:20:18;;;;;;;26.92;20.00;;;14.30;91.90;;;;;;4903218;29;20054;-88
2022/09/24 07:22:44;;;;;;;22.98;19.98;;;14.50;91.80;;;;;;4910923;29;20044;-89
2022/09/24 07:25:11;;;;;;;23.52;20.45;;;14.50;91.70;;;;;;4907663;29;20055;-88
2022/09/24 07:27:40;;;;;;;23.55;20.58;;;14.60;91.50;;;;;;4900942;29;20037;-88
2022/09/24 07:30:08;;;;;;;23.40;19.60;;;14.60;91.40;;;;;;4902617;29;20044;-88
2022/09/24 07:32:34;;;;;;;24.58;21.67;;;14.70;91.00;;;;;;4924285;29;20206;-88
2022/09/24 07:35:00;;;;;;;25.55;21.85;;;14.90;91.00;;;;;;4910346;29;20052;-89
2022/09/24 07:37:26;;;;;;;23.48;20.17;;;15.00;90.80;;;;;;4922949;29;20247;-88
2022/09/24 07:39:51;;;;;;;23.75;20.63;;;15.10;90.60;;;;;;4906542;29;20040;-88
2022/09/24 07:42:18;;;;;;;22.85;20.35;;;15.10;90.40;;;;;;4903115;29;20048;-89
2022/09/24 07:44:44;;;;;;;22.55;20.15;;;15.10;90.20;;;;;;4914751;29;20094;-88
2022/09/24 07:47:10;;;;;;;22.92;20.00;;;15.10;90.20;;;;;;4907584;29;20044;-88
2022/09/24 07:49:37;;;;;;;23.70;20.48;;;15.20;90.30;;;;;;4917436;29;20042;-88
2022/09/24 07:52:03;;;;;;;22.38;19.27;;;15.10;90.10;;;;;;4910841;29;20048;-89
2022/09/24 07:54:53;;;;;;;24.42;19.95;;;15.20;90.20;;;;;;4913687;29;20510;-89
2022/09/24 07:57:18;;;;;;;23.73;21.15;;;15.20;90.20;;;;;;4917740;29;20047;-88
2022/09/24 07:59:44;;;;;;;25.33;22.10;;;15.20;90.10;;;;;;4918060;29;20404;-89
2022/09/24 08:02:17;;;;;;;22.58;20.10;;;15.20;89.90;;;;;;4909159;29;20028;-88
2022/09/24 08:04:43;;;;;;;23.20;20.70;;;15.20;90.00;;;;;;4913314;29;20047;-87
2022/09/24 08:07:10;;;;;;;23.17;20.67;;;15.20;90.00;;;;;;4901014;29;20037;-89
2022/09/24 08:09:37;;;;;;;22.77;20.38;;;15.20;90.10;;;;;;4910405;29;20046;-90
2022/09/24 08:12:03;;;;;;;24.13;21.48;;;15.20;90.10;;;;;;4907396;29;20032;-89
2022/09/24 08:14:29;;;;;;;23.00;20.55;;;15.30;90.20;;;;;;4910486;29;20048;-89
2022/09/24 08:16:55;;;;;;;21.92;19.63;;;15.30;90.30;;;;;;4898928;29;20036;-87
2022/09/24 08:19:23;;;;;;;21.17;18.65;;;15.40;90.30;;;;;;4915625;29;20048;-88
2022/09/24 08:21:52;;;;;;;22.60;20.20;;;15.50;90.30;;;;;;4906047;29;20044;-88
2022/09/24 08:24:18;;;;;;;22.50;19.60;;;15.60;90.10;;;;;;4912753;29;20040;-88
2022/09/24 08:26:44;;;;;;;22.15;18.73;;;15.60;89.80;;;;;;4915938;29;20472;-88
2022/09/24 08:29:10;;;;;;;22.30;19.92;;;15.60;89.50;;;;;;4917470;29;20071;-88
2022/09/24 08:31:36;;;;;;;20.85;17.92;;;15.50;89.30;;;;;;4912504;29;20067;-89
2022/09/24 08:34:02;;;;;;;20.85;18.63;;;15.50;89.50;;;;;;4916033;29;20048;-89
2022/09/24 08:36:28;;;;;;;20.42;18.27;;;15.40;89.30;;;;;;4912673;29;20493;-90
2022/09/24 08:38:54;;;;;;;19.55;17.20;;;15.30;89.20;;;;;;4913612;29;20327;-88
2022/09/24 08:41:47;;;;;;;21.02;18.15;;;15.30;89.60;;;;;;4900697;29;20039;-89
2022/09/24 08:47:44;;;;;;;19.55;17.45;;;15.30;89.90;;;;;;4910704;29;20396;-89
2022/09/24 08:50:26;;;;;;;21.45;18.60;;;15.30;89.90;;;;;;4900465;29;20033;-89
2022/09/24 08:53:33;;;;;;;21.83;19.48;;;15.30;90.00;;;;;;4908468;29;20072;-89
2022/09/24 08:56:00;;;;;;;22.02;18.40;;;15.20;90.20;;;;;;4917390;29;20052;-89
2022/09/24 08:58:49;;;;;;;25.35;20.38;;;15.10;90.60;;;;;;4922366;29;20044;-89
2022/09/24 09:01:15;;;;;;;24.27;21.30;;;15.10;90.70;;;;;;4899879;29;20055;-89
2022/09/24 09:04:11;;;;;;;23.80;20.55;;;15.10;90.80;;;;;;4907754;29;20416;-90
2022/09/24 09:06:48;;;;;;;25.75;22.23;;;15.10;90.90;;;;;;4927299;29;20309;-88
2022/09/24 09:09:16;;;;;;;26.70;22.88;;;15.10;90.90;;;;;;4910198;29;20034;-90
2022/09/24 09:11:51;;;;;;;27.20;23.48;;;15.20;91.00;;;;;;4922062;29;20053;-90
2022/09/24 09:14:37;;;;;;;29.38;25.40;;;15.20;91.00;;;;;;4900685;29;20123;-90
2022/09/24 09:17:13;;;;;;;29.30;23.67;;;15.10;91.10;;;;;;4908695;29;20028;-88
2022/09/24 09:19:40;;;;;;;29.90;25.38;;;15.10;91.20;;;;;;4922065;29;20242;-89
2022/09/24 09:22:14;;;;;;;29.67;26.08;;;15.10;91.30;;;;;;4922841;29;20574;-89
2022/09/24 09:24:51;;;;;;;34.67;29.02;;;15.20;91.40;;;;;;4913541;29;20551;-89
2022/09/24 09:27:18;;;;;;;36.10;30.70;;;15.30;91.40;;;;;;4908311;29;20039;-89
2022/09/24 09:29:51;;;;;;;38.95;33.08;;;15.30;91.30;;;;;;4910106;29;20124;-90
2022/09/24 09:32:39;;;;;;;37.85;31.13;;;15.30;91.40;;;;;;4924844;29;20126;-90
2022/09/24 09:35:14;;;;;;;35.42;31.20;;;15.40;91.50;;;;;;4908500;29;20036;-90
2022/09/24 09:38:10;;;;;;;30.75;26.20;;;15.50;91.40;;;;;;4910693;29;20032;-90
2022/09/24 09:40:50;;;;;;;29.02;25.42;;;15.60;91.30;;;;;;4924198;29;20036;-90
2022/09/24 09:43:17;;;;;;;27.73;24.73;;;15.90;91.10;;;;;;4897709;29;20036;-90
2022/09/24 09:46:00;;;;;;;28.65;24.65;;;16.10;90.80;;;;;;4913457;29;20349;-89
2022/09/24 09:48:39;;;;;;;27.45;22.60;;;16.20;90.40;;;;;;4917059;29;20043;-90
2022/09/24 09:51:05;;;;;;;25.65;22.83;;;16.10;89.30;;;;;;4903707;29;20124;-89
2022/09/24 09:53:32;;;;;;;25.83;23.05;;;16.20;89.60;;;;;;4895864;29;20087;-89
2022/09/24 09:56:07;;;;;;;23.63;21.23;;;16.20;89.40;;;;;;4890287;29;20092;-90
2022/09/24 09:58:42;;;;;;;25.63;22.88;;;16.10;88.70;;;;;;4921024;29;20079;-89
2022/09/24 10:01:12;;;;;;;24.85;22.25;;;16.00;89.20;;;;;;4893804;29;20037;-90
2022/09/24 10:03:47;;;;;;;23.83;21.42;;;15.90;89.20;;;;;;4902325;29;20054;-90
2022/09/24 10:06:34;;;;;;;23.15;20.75;;;15.90;89.40;;;;;;4906186;29;20519;-91
2022/09/24 10:09:20;;;;;;;20.98;18.77;;;16.00;89.30;;;;;;4899403;29;20032;-89
2022/09/24 10:11:47;;;;;;;18.17;15.60;;;16.00;89.00;;;;;;4914942;29;20068;-91
2022/09/24 10:14:24;;;;;;;16.33;14.32;;;16.10;88.30;;;;;;4921041;29;20056;-91
2022/09/24 10:16:54;;;;;;;18.17;12.95;;;16.30;87.70;;;;;;4904117;29;20560;-90
2022/09/24 10:19:29;;;;;;;15.32;12.10;;;16.50;87.00;;;;;;4910666;29;20075;-91
2022/09/24 10:21:58;;;;;;;15.23;11.43;;;16.60;86.50;;;;;;4922618;29;20040;-91
2022/09/24 10:24:26;;;;;;;15.10;11.65;;;16.70;85.80;;;;;;4904747;29;20041;-91
2022/09/24 10:26:53;;;;;;;14.65;11.02;;;17.00;85.90;;;;;;4906802;29;20036;-92
2022/09/24 10:32:20;;;;;;;11.30;8.93;;;17.00;84.20;;;;;;4900397;29;20070;-90
2022/09/24 10:35:04;;;;;;;14.35;8.48;;;17.00;84.60;;;;;;4894965;28;20043;-91
2022/09/24 10:37:40;;;;;;;10.60;7.53;;;17.10;83.60;;;;;;4904064;29;20040;-92
2022/09/24 10:40:14;;;;;;;12.20;7.38;;;17.00;83.40;;;;;;4895907;29;20039;-91
2022/09/24 10:42:42;;;;;;;11.30;7.20;;;16.90;83.60;;;;;;4921809;29;20100;-92
2022/09/24 10:45:14;;;;;;;11.52;6.57;;;16.80;83.00;;;;;;4904953;29;20119;-91
2022/09/24 10:47:59;;;;;;;10.68;6.80;;;16.60;83.50;;;;;;4906318;29;20100;-91
2022/09/24 10:50:33;;;;;;;10.65;6.53;;;16.50;83.70;;;;;;4914804;29;20056;-91
2022/09/24 10:53:08;;;;;;;15.65;7.22;;;16.50;83.80;;;;;;4906033;29;20052;-91
2022/09/24 10:56:02;;;;;;;10.23;6.38;;;16.60;83.40;;;;;;4893164;29;20036;-90
2022/09/24 10:58:54;;;;;;;11.07;6.57;;;16.70;83.20;;;;;;4918553;29;20032;-90
2022/09/24 11:01:52;;;;;;;12.23;6.05;;;16.80;82.80;;;;;;4913403;29;20048;-91
2022/09/24 11:04:27;;;;;;;11.55;5.60;;;16.90;82.10;;;;;;4911334;29;20039;-89
2022/09/24 11:07:23;;;;;;;10.80;5.68;;;16.90;82.10;;;;;;4907499;29;20036;-90
2022/09/24 11:10:26;;;;;;;11.85;4.82;;;16.90;81.90;;;;;;4923615;29;20104;-89
2022/09/24 11:13:02;;;;;;;7.28;3.78;;;17.10;81.20;;;;;;4927178;29;20056;-91
2022/09/24 11:16:13;;;;;;;9.75;4.10;;;17.20;80.30;;;;;;4918151;29;20063;-90
2022/09/24 11:19:02;;;;;;;7.60;3.75;;;17.10;81.30;;;;;;4924614;29;20488;-90
2022/09/24 11:21:37;;;;;;;11.32;5.10;;;17.30;80.20;;;;;;4908130;29;20039;-91
2022/09/24 11:24:17;;;;;;;8.75;3.97;;;17.40;80.10;;;;;;4907549;29;20451;-90
2022/09/24 11:26:58;;;;;;;9.82;4.03;;;17.40;79.40;;;;;;4926012;29;20401;-91
2022/09/24 11:30:06;;;;;;;9.40;4.03;;;17.30;79.40;;;;;;4923546;28;20044;-91
2022/09/24 11:32:52;;;;;;;9.02;3.80;;;17.20;80.10;;;;;;4907581;29;20095;-92
2022/09/24 11:35:55;;;;;;;8.82;3.50;;;17.20;79.80;;;;;;4902745;29;20044;-92
2022/09/24 11:38:42;;;;;;;10.13;4.05;;;17.20;80.40;;;;;;4926371;29;20093;-91
2022/09/24 11:41:37;;;;;;;7.68;2.50;;;17.20;79.80;;;;;;4922904;29;20043;-89
2022/09/24 11:44:53;;;;;;;8.10;2.38;;;17.10;79.50;;;;;;4909217;29;20044;-92
2022/09/24 11:54:24;;;;;;;9.75;2.92;;;16.80;79.10;;;;;;4876051;29;20052;-90
2022/09/24 11:57:04;;;;;;;7.05;2.63;;;16.80;79.70;;;;;;4891027;29;20044;-90
2022/09/24 11:59:56;;;;;;;;;;;;;;;;;;;;;
2022/09/24 12:02:41;;;;;;;;;;;;;;;;;;;;;
2022/09/24 12:06:03;;;;;;;8.20;2.47;;;16.80;78.90;;;;;;4913902;29;20040;-90
2022/09/24 12:08:41;;;;;;;9.15;3.58;;;16.70;79.00;;;;;;4885303;29;20112;-89
2022/09/24 12:11:22;;;;;;;14.13;4.50;;;16.80;79.70;;;;;;4887509;29;20052;-90
2022/09/24 12:14:01;;;;;;;9.80;3.35;;;17.10;79.90;;;;;;4885815;29;20048;-90
2022/09/24 12:16:39;;;;;;;10.35;2.83;;;17.20;78.50;;;;;;4890270;29;20043;-90
2022/09/24 12:19:47;;;;;;;8.93;2.83;;;17.20;77.30;;;;;;4862852;29;20040;-90
2022/09/24 12:22:54;;;;;;;10.48;2.65;;;17.30;77.80;;;;;;4904385;29;20286;-90
2022/09/24 12:25:38;;;;;;;9.32;2.88;;;17.30;77.00;;;;;;4880474;29;20450;-91
2022/09/24 12:34:37;;;;;;;7.85;2.65;;;17.40;77.60;;;;;;4875209;29;20142;-93
2022/09/24 12:37:17;;;;;;;10.23;2.85;;;17.40;77.90;;;;;;4900495;29;20044;-89
2022/09/24 12:40:12;;;;;;;10.90;3.33;;;17.50;76.80;;;;;;4901493;28;20127;-90
2022/09/24 12:42:48;;;;;;;8.05;2.35;;;17.30;76.80;;;;;;4852515;29;20295;-90
2022/09/24 12:45:37;;;;;;;12.05;2.60;;;17.20;76.80;;;;;;4895276;29;20119;-90
2022/09/24 12:48:46;;;;;;;7.03;2.38;;;17.50;77.10;;;;;;4902998;29;20035;-91
2022/09/24 12:51:22;;;;;;;9.32;2.63;;;17.30;76.60;;;;;;4808187;29;20589;-90
2022/09/24 12:57:20;;;;;;;7.68;2.70;;;17.60;76.30;;;;;;4884630;29;20196;-90
2022/09/24 13:00:22;;;;;;;8.88;2.35;;;17.30;76.30;;;;;;4894694;28;20091;-90
2022/09/24 13:02:57;;;;;;;8.40;2.20;;;17.10;76.50;;;;;;4845655;29;20045;-91
2022/09/24 13:05:28;;;;;;;10.65;2.00;;;17.00;77.40;;;;;;4794796;29;20059;-90
2022/09/24 13:07:59;;;;;;;8.15;2.42;;;17.10;76.70;;;;;;4828698;29;20061;-90
2022/09/24 13:10:35;;;;;;;8.32;2.70;;;17.10;77.10;;;;;;4836306;28;20402;-90
2022/09/24 13:14:00;;;;;;;;;;;;;;;;;;;;;
2022/09/24 13:16:44;;;;;;;12.27;2.92;;;17.30;76.20;;;;;;4907379;29;20121;-90
2022/09/24 13:20:07;;;;;;;8.55;2.45;;;17.20;75.50;;;;;;4845607;29;20081;-90
2022/09/24 13:23:15;;;;;;;9.85;3.20;;;17.10;75.90;;;;;;4896389;29;20039;-89
2022/09/24 13:26:04;;;;;;;10.18;3.05;;;17.20;75.90;;;;;;4886502;29;20048;-90
2022/09/24 13:28:54;;;;;;;10.55;2.55;;;17.40;75.10;;;;;;4862759;29;20382;-90
2022/09/24 13:31:32;;;;;;;12.68;2.50;;;17.40;75.20;;;;;;4856540;29;20064;-90
2022/09/24 13:34:28;;;;;;;9.77;2.22;;;17.30;75.90;;;;;;4879386;29;20060;-92
2022/09/24 13:37:19;;;;;;;9.95;2.45;;;17.30;74.70;;;;;;4881668;29;20079;-89
2022/09/24 13:40:12;;;;;;;9.45;2.38;;;17.40;75.90;;;;;;4829597;29;20055;-89
2022/09/24 13:43:05;;;;;;;10.20;2.75;;;17.70;73.90;;;;;;4898875;29;20044;-89
2022/09/24 13:48:53;;;;;;;7.43;2.63;;;17.80;72.50;;;;;;4782001;29;20126;-90
2022/09/24 13:51:40;;;;;;;9.10;2.08;;;17.60;73.30;;;;;;4888849;29;20033;-90
2022/09/24 13:54:50;;;;;;;7.43;2.28;;;17.50;73.30;;;;;;4872566;29;20111;-91
2022/09/24 13:57:59;;;;;;;11.38;3.40;;;17.40;74.30;;;;;;4819359;29;20412;-90